Time,TemperatureF,DewpointF,PressureIn,WindDirection,WindDirectionDegrees,WindSpeedMPH,WindSpeedGustMPH,Humidity,HourlyPrecipIn,Conditions,Clouds,dailyrainin,SoftwareType,DateUTC
2013-03-31 00:02:00,50.0,36.0,-100.00,South,185,1.0,2.0,58,-99.99,,,-99.99,,2013-03-31 07:02:00,
2013-03-31 01:02:00,47.0,36.0,-100.00,WSW,250,1.0,2.0,65,-99.99,,,-99.99,,2013-03-31 08:02:00,
2013-03-31 01:12:00,47.0,36.0,-100.00,WSW,250,1.0,2.0,65,-99.99,,,-99.99,,2013-03-31 08:12:00,
2013-03-31 02:02:00,44.0,35.0,-100.00,WNW,285,1.0,3.0,70,-99.99,,,-99.99,,2013-03-31 09:02:00,
2013-03-31 03:03:00,48.0,36.0,-100.00,SSE,155,3.0,6.0,62,-99.99,,,-99.99,,2013-03-31 10:03:00,
2013-03-31 03:10:00,49.0,36.0,-100.00,SSE,165,3.0,10.0,60,-99.99,,,-99.99,,2013-03-31 10:10:00,
2013-03-31 03:12:00,48.0,36.0,-100.00,SSE,155,3.0,6.0,62,-99.99,,,-99.99,,2013-03-31 10:12:00,
2013-03-31 04:02:00,49.0,36.0,-100.00,SSE,165,3.0,10.0,60,-99.99,,,-99.99,,2013-03-31 11:02:00,
2013-03-31 05:02:00,47.0,35.0,-100.00,North,5,6.0,10.0,62,-99.99,,,-99.99,,2013-03-31 12:02:00,
2013-03-31 05:12:00,47.0,35.0,-100.00,North,5,6.0,10.0,62,-99.99,,,-99.99,,2013-03-31 12:12:00,
2013-03-31 06:02:00,47.0,35.0,-100.00,South,170,6.0,9.0,62,-99.99,,,-99.99,,2013-03-31 13:02:00,
2013-03-31 06:10:00,45.0,35.0,-100.00,NNE,15,7.0,13.0,67,-99.99,,,-99.99,,2013-03-31 13:10:00,
2013-03-31 07:02:00,45.0,35.0,-100.00,NNE,15,7.0,13.0,67,-99.99,,,-99.99,,2013-03-31 14:02:00,
2013-03-31 08:02:00,45.0,35.0,-100.00,SE,145,5.0,10.0,67,-99.99,,,-99.99,,2013-03-31 15:02:00,
2013-03-31 08:10:00,44.0,35.0,-100.00,NE,50,1.0,5.0,70,-99.99,,,-99.99,,2013-03-31 15:10:00,
2013-03-31 09:00:00,50.0,36.0,-100.00,NNE,25,7.0,12.0,58,-99.99,,,-99.99,,2013-03-31 16:00:00,
2013-03-31 09:03:00,44.0,35.0,-100.00,NE,50,1.0,5.0,70,-99.99,,,-99.99,,2013-03-31 16:03:00,
2013-03-31 10:10:00,53.0,38.0,-100.00,NNE,30,7.0,10.0,56,-99.99,,,-99.99,,2013-03-31 17:10:00,
2013-03-31 11:02:00,53.0,38.0,-100.00,NNE,30,7.0,10.0,56,-99.99,,,-99.99,,2013-03-31 18:02:00,
2013-03-31 11:20:00,58.0,37.0,-100.00,South,175,7.0,13.0,45,-99.99,,,-99.99,,2013-03-31 18:20:00,
2013-03-31 12:03:00,58.0,37.0,-100.00,South,175,7.0,13.0,45,-99.99,,,-99.99,,2013-03-31 19:03:00,
2013-03-31 12:10:00,62.0,38.0,-100.00,North,5,6.0,10.0,40,-99.99,,,-99.99,,2013-03-31 19:10:00,
2013-03-31 12:12:00,58.0,37.0,-100.00,South,175,7.0,13.0,45,-99.99,,,-99.99,,2013-03-31 19:12:00,
2013-03-31 13:02:00,62.0,38.0,-100.00,North,5,6.0,10.0,40,-99.99,,,-99.99,,2013-03-31 20:02:00,
2013-03-31 14:02:00,67.0,38.0,-100.00,ESE,110,5.0,7.0,34,-99.99,,,-99.99,,2013-03-31 21:02:00,
2013-03-31 14:10:00,69.0,38.0,-100.00,NE,40,3.0,6.0,32,-99.99,,,-99.99,,2013-03-31 21:10:00,
2013-03-31 14:12:00,67.0,38.0,-100.00,ESE,110,5.0,7.0,34,-99.99,,,-99.99,,2013-03-31 21:12:00,
2013-03-31 15:03:00,69.0,38.0,-100.00,NE,40,3.0,6.0,32,-99.99,,,-99.99,,2013-03-31 22:03:00,
2013-03-31 16:02:00,72.0,34.0,-100.00,NNE,15,3.0,6.0,24,-99.99,,,-99.99,,2013-03-31 23:02:00,
2013-03-31 16:12:00,72.0,34.0,-100.00,NNE,15,3.0,6.0,24,-99.99,,,-99.99,,2013-03-31 23:12:00,
2013-03-31 17:02:00,74.0,35.0,-100.00,NE,55,3.0,5.0,24,-99.99,,,-99.99,,2013-04-01 00:02:00,
2013-03-31 18:02:00,74.0,34.0,-100.00,NNE,30,3.0,6.0,23,-99.99,,,-99.99,,2013-04-01 01:02:00,
2013-03-31 18:12:00,74.0,34.0,-100.00,NNE,30,3.0,6.0,23,-99.99,,,-99.99,,2013-04-01 01:12:00,